FIN4VP EFHK-LSGG
Flight info
| Callsign | FIN4VP |
|---|---|
| Flight time | 2h 47m |
| Altitude | 38000 |
| Route | VALOX Y117 ROSAX DCT LUXEM DCT LEMSI DCT DEREX DCT GORPI DCT FARCU DCT PENEK DCT TOPDI DCT IBAGA DCT DKB N869 TEDGO/N0436F390 N869 NATOR DCT LUTIX DCT BENOT |
| Aircraft | A320/M-SDE1E2E3FGIJ1M1RWXYZ/LB1 |
Departure
| Time | 2026-04-26 17:50 |
|---|---|
| Airport | Helsinki Vantaa Airport (EFHK) |
Arrival
| Time | 2026-04-26 20:37 |
|---|---|
| Airport | Geneva International Airport (LSGG) |
| Time | Latitude | Longitude | Altitude | Speed | Heading |
|---|---|---|---|---|---|
| 2026-04-26 17:11 | 60.31837 | 24.96472 | 167 ft | 0 kts | 137° |
| 2026-04-26 17:40 | 60.31853 | 24.96444 | 167 ft | 4 kts | 140° |
| 2026-04-26 17:41 | 60.31874 | 24.96413 | 167 ft | 4 kts | 159° |
| 2026-04-26 17:41 | 60.31895 | 24.96410 | 167 ft | 3 kts | 225° |
| 2026-04-26 17:41 | 60.31911 | 24.96447 | 167 ft | 3 kts | 227° |
| 2026-04-26 17:41 | 60.31913 | 24.96451 | 167 ft | 0 kts | 227° |
| 2026-04-26 17:43 | 60.31910 | 24.96445 | 167 ft | 3 kts | 227° |
| 2026-04-26 17:44 | 60.31888 | 24.96397 | 167 ft | 4 kts | 228° |
| 2026-04-26 17:44 | 60.31865 | 24.96336 | 167 ft | 9 kts | 238° |
| 2026-04-26 17:44 | 60.31859 | 24.96181 | 167 ft | 13 kts | 288° |
| 2026-04-26 17:44 | 60.31917 | 24.96043 | 167 ft | 13 kts | 308° |
| 2026-04-26 17:45 | 60.31897 | 24.95891 | 169 ft | 12 kts | 227° |
| 2026-04-26 17:45 | 60.31838 | 24.95759 | 169 ft | 14 kts | 228° |
| 2026-04-26 17:45 | 60.31777 | 24.95623 | 170 ft | 13 kts | 227° |
| 2026-04-26 17:45 | 60.31702 | 24.95459 | 171 ft | 19 kts | 228° |
| 2026-04-26 17:46 | 60.31611 | 24.95259 | 170 ft | 20 kts | 227° |
| 2026-04-26 17:46 | 60.31519 | 24.95055 | 169 ft | 18 kts | 227° |
| 2026-04-26 17:46 | 60.31463 | 24.94932 | 168 ft | 6 kts | 227° |
| 2026-04-26 17:46 | 60.31450 | 24.94903 | 167 ft | 2 kts | 227° |
| 2026-04-26 17:47 | 60.31436 | 24.94872 | 167 ft | 4 kts | 227° |
| 2026-04-26 17:47 | 60.31422 | 24.94842 | 166 ft | 5 kts | 227° |
| 2026-04-26 17:47 | 60.31400 | 24.94739 | 164 ft | 7 kts | 277° |
| 2026-04-26 17:47 | 60.31429 | 24.94667 | 164 ft | 2 kts | 319° |
| 2026-04-26 17:48 | 60.31432 | 24.94663 | 164 ft | 0 kts | 319° |
| 2026-04-26 17:48 | 60.31432 | 24.94662 | 164 ft | 0 kts | 319° |
| 2026-04-26 17:48 | 60.31447 | 24.94634 | 164 ft | 7 kts | 318° |
| 2026-04-26 17:49 | 60.31495 | 24.94548 | 163 ft | 11 kts | 317° |
| 2026-04-26 17:49 | 60.31529 | 24.94519 | 163 ft | 4 kts | 27° |
| 2026-04-26 17:49 | 60.31579 | 24.94628 | 165 ft | 30 kts | 47° |
| 2026-04-26 17:49 | 60.31892 | 24.95314 | 174 ft | 99 kts | 48° |
| 2026-04-26 17:50 | 60.32498 | 24.96633 | 182 ft | 154 kts | 49° |
| 2026-04-26 17:50 | 60.33203 | 24.98257 | 769 ft | 152 kts | 43° |
| 2026-04-26 17:50 | 60.33902 | 24.99835 | 1551 ft | 150 kts | 40° |
| 2026-04-26 17:50 | 60.34653 | 25.01475 | 1988 ft | 169 kts | 39° |
| 2026-04-26 17:51 | 60.35509 | 25.03307 | 2386 ft | 191 kts | 40° |
| 2026-04-26 17:51 | 60.36469 | 25.05372 | 2872 ft | 211 kts | 40° |
| 2026-04-26 17:51 | 60.37510 | 25.07640 | 3520 ft | 228 kts | 41° |
| 2026-04-26 17:51 | 60.38613 | 25.10077 | 4228 ft | 242 kts | 41° |
| 2026-04-26 17:52 | 60.39495 | 25.13061 | 5131 ft | 262 kts | 70° |
| 2026-04-26 17:52 | 60.39426 | 25.16871 | 5965 ft | 285 kts | 99° |
| 2026-04-26 17:52 | 60.38653 | 25.20651 | 6830 ft | 295 kts | 112° |
| 2026-04-26 17:52 | 60.37648 | 25.24282 | 7814 ft | 297 kts | 115° |
| 2026-04-26 17:53 | 60.36599 | 25.27885 | 8781 ft | 298 kts | 115° |
| 2026-04-26 17:53 | 60.35495 | 25.31459 | 9719 ft | 304 kts | 124° |
| 2026-04-26 17:53 | 60.33963 | 25.34462 | 10533 ft | 313 kts | 141° |
| 2026-04-26 17:54 | 60.29526 | 25.35872 | 11313 ft | 348 kts | 201° |
| 2026-04-26 17:54 | 60.27338 | 25.33809 | 12057 ft | 348 kts | 218° |
| 2026-04-26 17:54 | 60.25531 | 25.30596 | 12879 ft | 345 kts | 232° |
| 2026-04-26 17:54 | 60.24050 | 25.26899 | 13680 ft | 346 kts | 235° |
| 2026-04-26 17:55 | 60.22509 | 25.23143 | 14396 ft | 349 kts | 233° |
| 2026-04-26 17:55 | 60.20907 | 25.19449 | 15100 ft | 352 kts | 231° |
| 2026-04-26 17:55 | 60.19261 | 25.15764 | 15796 ft | 355 kts | 231° |
| 2026-04-26 17:55 | 60.17597 | 25.12076 | 16486 ft | 358 kts | 231° |
| 2026-04-26 17:56 | 60.15918 | 25.08354 | 17162 ft | 361 kts | 231° |
| 2026-04-26 17:56 | 60.12528 | 25.00795 | 18419 ft | 368 kts | 232° |
| 2026-04-26 17:57 | 60.09084 | 24.93042 | 19504 ft | 376 kts | 232° |
| 2026-04-26 17:57 | 60.07333 | 24.89114 | 20048 ft | 380 kts | 232° |
| 2026-04-26 17:57 | 60.05563 | 24.85155 | 20591 ft | 384 kts | 232° |
| 2026-04-26 17:57 | 60.03775 | 24.81163 | 21140 ft | 387 kts | 232° |
| 2026-04-26 17:58 | 59.98292 | 24.68955 | 22749 ft | 399 kts | 233° |
| 2026-04-26 17:59 | 59.94542 | 24.60642 | 23718 ft | 406 kts | 233° |
| 2026-04-26 17:59 | 59.92663 | 24.56487 | 24127 ft | 410 kts | 233° |
| 2026-04-26 17:59 | 59.90741 | 24.52247 | 24470 ft | 415 kts | 234° |
| 2026-04-26 17:59 | 59.88794 | 24.47958 | 24852 ft | 418 kts | 234° |
| 2026-04-26 18:00 | 59.86833 | 24.43650 | 25247 ft | 422 kts | 234° |
| 2026-04-26 18:00 | 59.84851 | 24.39315 | 25592 ft | 425 kts | 236° |
| 2026-04-26 18:00 | 59.82851 | 24.34945 | 25952 ft | 429 kts | 236° |
| 2026-04-26 18:00 | 59.80839 | 24.30546 | 26324 ft | 432 kts | 236° |
| 2026-04-26 18:01 | 59.78808 | 24.26117 | 26693 ft | 435 kts | 236° |
| 2026-04-26 18:01 | 59.76762 | 24.21667 | 27063 ft | 437 kts | 236° |
| 2026-04-26 18:01 | 59.74704 | 24.17199 | 27433 ft | 440 kts | 236° |
| 2026-04-26 18:01 | 59.72466 | 24.12951 | 27787 ft | 452 kts | 226° |
| 2026-04-26 18:02 | 59.69904 | 24.09235 | 28142 ft | 459 kts | 224° |
| 2026-04-26 18:02 | 59.69028 | 24.08001 | 28228 ft | 460 kts | 224° |
| 2026-04-26 18:02 | 59.64664 | 24.01858 | 28763 ft | 465 kts | 224° |
| 2026-04-26 18:02 | 59.62021 | 23.98141 | 29165 ft | 466 kts | 224° |
| 2026-04-26 18:03 | 59.59376 | 23.94422 | 29558 ft | 467 kts | 224° |
| 2026-04-26 18:03 | 59.56723 | 23.90688 | 29903 ft | 469 kts | 224° |
| 2026-04-26 18:03 | 59.54060 | 23.86937 | 30192 ft | 472 kts | 224° |
| 2026-04-26 18:03 | 59.51382 | 23.83169 | 30457 ft | 474 kts | 224° |
| 2026-04-26 18:04 | 59.48739 | 23.79313 | 30722 ft | 471 kts | 229° |
| 2026-04-26 18:04 | 59.46390 | 23.74892 | 30967 ft | 462 kts | 237° |
| 2026-04-26 18:04 | 59.44343 | 23.70058 | 31223 ft | 461 kts | 239° |
| 2026-04-26 18:05 | 59.40262 | 23.60331 | 31871 ft | 461 kts | 239° |
| 2026-04-26 18:05 | 59.38207 | 23.55484 | 32208 ft | 461 kts | 238° |
| 2026-04-26 18:05 | 59.36180 | 23.50711 | 32536 ft | 461 kts | 238° |
| 2026-04-26 18:05 | 59.34129 | 23.45877 | 32863 ft | 461 kts | 238° |
| 2026-04-26 18:06 | 59.32078 | 23.41043 | 33198 ft | 461 kts | 238° |
| 2026-04-26 18:06 | 59.30026 | 23.36214 | 33526 ft | 461 kts | 238° |
| 2026-04-26 18:06 | 59.27970 | 23.31396 | 33859 ft | 462 kts | 237° |
| 2026-04-26 18:06 | 59.25910 | 23.26580 | 34140 ft | 461 kts | 237° |
| 2026-04-26 18:07 | 59.23841 | 23.21777 | 34384 ft | 463 kts | 235° |
| 2026-04-26 18:07 | 59.21543 | 23.17293 | 34633 ft | 468 kts | 230° |
| 2026-04-26 18:07 | 59.19167 | 23.12948 | 34886 ft | 468 kts | 230° |
| 2026-04-26 18:08 | 59.14423 | 23.04292 | 35410 ft | 467 kts | 229° |
| 2026-04-26 18:08 | 59.12054 | 22.99979 | 35665 ft | 466 kts | 229° |
| 2026-04-26 18:08 | 59.09686 | 22.95668 | 35878 ft | 466 kts | 229° |
| 2026-04-26 18:09 | 59.04985 | 22.87144 | 35977 ft | 458 kts | 230° |
| 2026-04-26 18:09 | 59.01085 | 22.80107 | 35960 ft | 455 kts | 230° |
| 2026-04-26 18:10 | 58.96650 | 22.71436 | 35973 ft | 450 kts | 234° |
| 2026-04-26 18:10 | 58.92444 | 22.62581 | 35976 ft | 449 kts | 234° |
| 2026-04-26 18:11 | 58.88192 | 22.53712 | 35981 ft | 450 kts | 234° |
| 2026-04-26 18:11 | 58.83872 | 22.44948 | 36000 ft | 451 kts | 233° |
| 2026-04-26 18:12 | 58.79518 | 22.36222 | 35979 ft | 451 kts | 233° |
| 2026-04-26 18:12 | 58.75166 | 22.27513 | 36004 ft | 451 kts | 233° |
| 2026-04-26 18:13 | 58.70820 | 22.18837 | 36028 ft | 450 kts | 233° |
| 2026-04-26 18:13 | 58.66475 | 22.10167 | 36039 ft | 450 kts | 233° |
| 2026-04-26 18:14 | 58.62123 | 22.01521 | 36047 ft | 450 kts | 233° |
| 2026-04-26 18:14 | 58.57765 | 21.92910 | 36011 ft | 450 kts | 233° |
| 2026-04-26 18:15 | 58.53408 | 21.84326 | 36040 ft | 449 kts | 233° |
| 2026-04-26 18:15 | 58.49047 | 21.75760 | 36048 ft | 449 kts | 233° |
| 2026-04-26 18:16 | 58.44685 | 21.67230 | 36059 ft | 449 kts | 233° |
| 2026-04-26 18:16 | 58.38155 | 21.54542 | 36042 ft | 448 kts | 233° |
| 2026-04-26 18:17 | 58.33754 | 21.46021 | 36038 ft | 448 kts | 233° |
| 2026-04-26 18:17 | 58.29399 | 21.37631 | 36057 ft | 448 kts | 233° |
| 2026-04-26 18:18 | 58.25021 | 21.29213 | 36077 ft | 448 kts | 233° |
| 2026-04-26 18:18 | 58.20644 | 21.20818 | 36080 ft | 447 kts | 233° |
| 2026-04-26 18:19 | 58.16259 | 21.12443 | 36093 ft | 447 kts | 233° |
| 2026-04-26 18:19 | 58.11860 | 21.04100 | 36064 ft | 447 kts | 233° |
| 2026-04-26 18:20 | 58.07467 | 20.95788 | 36088 ft | 446 kts | 233° |
| 2026-04-26 18:20 | 58.03822 | 20.88892 | 36095 ft | 446 kts | 233° |
| 2026-04-26 18:21 | 57.98687 | 20.79234 | 36107 ft | 446 kts | 233° |
| 2026-04-26 18:21 | 57.94287 | 20.71005 | 36107 ft | 446 kts | 233° |
| 2026-04-26 18:22 | 57.89880 | 20.62784 | 36085 ft | 446 kts | 233° |
| 2026-04-26 18:22 | 57.85467 | 20.54582 | 36095 ft | 446 kts | 233° |
| 2026-04-26 18:23 | 57.81053 | 20.46405 | 36105 ft | 446 kts | 233° |
| 2026-04-26 18:23 | 57.76667 | 20.38306 | 36097 ft | 446 kts | 233° |
| 2026-04-26 18:24 | 57.72244 | 20.30177 | 36110 ft | 446 kts | 233° |
| 2026-04-26 18:24 | 57.67814 | 20.22070 | 36081 ft | 445 kts | 233° |
| 2026-04-26 18:25 | 57.63384 | 20.13965 | 36098 ft | 445 kts | 233° |
| 2026-04-26 18:25 | 57.58964 | 20.05872 | 36107 ft | 445 kts | 233° |
| 2026-04-26 18:26 | 57.54535 | 19.97802 | 36113 ft | 445 kts | 233° |
| 2026-04-26 18:26 | 57.50092 | 19.89767 | 36116 ft | 445 kts | 233° |
| 2026-04-26 18:27 | 57.45647 | 19.81751 | 36085 ft | 445 kts | 233° |
| 2026-04-26 18:27 | 57.41197 | 19.73757 | 36107 ft | 445 kts | 233° |
| 2026-04-26 18:28 | 57.36749 | 19.65788 | 36117 ft | 445 kts | 233° |
| 2026-04-26 18:28 | 57.32299 | 19.57831 | 36123 ft | 445 kts | 233° |
| 2026-04-26 18:29 | 57.27838 | 19.49892 | 36132 ft | 445 kts | 233° |
| 2026-04-26 18:29 | 57.23376 | 19.41974 | 36132 ft | 445 kts | 233° |
| 2026-04-26 18:30 | 57.18912 | 19.34089 | 36140 ft | 444 kts | 233° |
| 2026-04-26 18:30 | 57.14476 | 19.26276 | 36127 ft | 443 kts | 232° |
| 2026-04-26 18:31 | 57.10012 | 19.18448 | 36146 ft | 443 kts | 232° |
| 2026-04-26 18:31 | 57.05544 | 19.10638 | 36151 ft | 443 kts | 232° |
| 2026-04-26 18:32 | 57.01080 | 19.02863 | 36127 ft | 441 kts | 232° |
| 2026-04-26 18:32 | 56.96628 | 18.95147 | 36146 ft | 439 kts | 232° |
| 2026-04-26 18:33 | 56.92192 | 18.87458 | 36160 ft | 438 kts | 232° |
| 2026-04-26 18:33 | 56.87754 | 18.79793 | 36163 ft | 438 kts | 232° |
| 2026-04-26 18:34 | 56.83316 | 18.72157 | 36169 ft | 438 kts | 232° |
| 2026-04-26 18:34 | 56.78871 | 18.64544 | 36136 ft | 438 kts | 232° |
| 2026-04-26 18:35 | 56.74426 | 18.56962 | 36151 ft | 437 kts | 232° |
| 2026-04-26 18:35 | 56.69978 | 18.49398 | 36163 ft | 437 kts | 232° |
| 2026-04-26 18:36 | 56.65529 | 18.41850 | 36183 ft | 437 kts | 232° |
| 2026-04-26 18:36 | 56.61082 | 18.34316 | 36190 ft | 437 kts | 232° |
| 2026-04-26 18:37 | 56.56618 | 18.26804 | 36160 ft | 437 kts | 231° |
| 2026-04-26 18:37 | 56.52156 | 18.19326 | 36154 ft | 436 kts | 231° |
| 2026-04-26 18:38 | 56.47706 | 18.11882 | 36178 ft | 436 kts | 231° |
| 2026-04-26 18:38 | 56.43272 | 18.04495 | 36187 ft | 436 kts | 231° |
| 2026-04-26 18:39 | 56.38814 | 17.97078 | 36198 ft | 435 kts | 231° |
| 2026-04-26 18:39 | 56.34359 | 17.89687 | 36166 ft | 435 kts | 230° |
| 2026-04-26 18:40 | 56.29898 | 17.82330 | 36192 ft | 434 kts | 230° |
| 2026-04-26 18:40 | 56.25438 | 17.74981 | 36203 ft | 434 kts | 230° |
| 2026-04-26 18:41 | 56.20984 | 17.67676 | 36205 ft | 433 kts | 230° |
| 2026-04-26 18:41 | 56.16520 | 17.60397 | 36204 ft | 433 kts | 230° |
| 2026-04-26 18:42 | 56.12064 | 17.53135 | 36173 ft | 433 kts | 230° |
| 2026-04-26 18:42 | 56.07612 | 17.45901 | 36195 ft | 432 kts | 230° |
| 2026-04-26 18:43 | 56.03161 | 17.38698 | 36204 ft | 431 kts | 230° |
| 2026-04-26 18:43 | 55.98710 | 17.31516 | 36206 ft | 431 kts | 230° |
| 2026-04-26 18:44 | 55.94258 | 17.24356 | 36205 ft | 431 kts | 230° |
| 2026-04-26 18:44 | 55.89804 | 17.17220 | 36171 ft | 430 kts | 229° |
| 2026-04-26 18:45 | 55.85356 | 17.10104 | 36179 ft | 429 kts | 229° |
| 2026-04-26 18:45 | 55.80906 | 17.03012 | 36193 ft | 429 kts | 229° |
| 2026-04-26 18:46 | 55.76479 | 16.95990 | 36204 ft | 429 kts | 229° |
| 2026-04-26 18:46 | 55.71995 | 16.88902 | 36208 ft | 429 kts | 229° |
| 2026-04-26 18:47 | 55.67569 | 16.81923 | 36183 ft | 428 kts | 229° |
| 2026-04-26 18:47 | 55.63114 | 16.74915 | 36196 ft | 428 kts | 229° |
| 2026-04-26 18:48 | 55.58654 | 16.67928 | 36208 ft | 428 kts | 229° |
| 2026-04-26 18:48 | 55.54194 | 16.60960 | 36213 ft | 428 kts | 229° |
| 2026-04-26 18:49 | 55.49736 | 16.54003 | 36228 ft | 428 kts | 229° |
| 2026-04-26 18:49 | 55.45270 | 16.47061 | 36204 ft | 428 kts | 228° |
| 2026-04-26 18:50 | 55.40799 | 16.40142 | 36219 ft | 428 kts | 228° |
| 2026-04-26 18:50 | 55.36325 | 16.33255 | 36224 ft | 427 kts | 228° |
| 2026-04-26 18:51 | 55.31854 | 16.26374 | 36241 ft | 427 kts | 228° |
| 2026-04-26 18:51 | 55.27374 | 16.19514 | 36239 ft | 427 kts | 228° |
| 2026-04-26 18:52 | 55.23652 | 16.13824 | 36237 ft | 427 kts | 228° |
| 2026-04-26 18:52 | 55.18421 | 16.05832 | 36240 ft | 426 kts | 228° |
| 2026-04-26 18:53 | 55.14709 | 16.00171 | 36250 ft | 426 kts | 228° |
| 2026-04-26 18:53 | 55.10234 | 15.93405 | 36252 ft | 425 kts | 227° |
| 2026-04-26 18:54 | 55.05755 | 15.86647 | 36262 ft | 425 kts | 227° |
| 2026-04-26 18:54 | 55.01277 | 15.79903 | 36262 ft | 425 kts | 227° |
| 2026-04-26 18:55 | 54.96798 | 15.73181 | 36262 ft | 425 kts | 227° |
| 2026-04-26 18:55 | 54.92319 | 15.66472 | 36262 ft | 425 kts | 227° |
| 2026-04-26 18:56 | 54.87811 | 15.59811 | 36269 ft | 425 kts | 227° |
| 2026-04-26 18:56 | 54.83258 | 15.53216 | 36268 ft | 426 kts | 226° |
| 2026-04-26 18:57 | 54.79476 | 15.47762 | 36272 ft | 426 kts | 226° |
| 2026-04-26 18:57 | 54.74151 | 15.40107 | 36258 ft | 425 kts | 226° |
| 2026-04-26 18:58 | 54.69600 | 15.33563 | 36269 ft | 425 kts | 226° |
| 2026-04-26 18:58 | 54.65048 | 15.27036 | 36276 ft | 425 kts | 226° |
| 2026-04-26 18:59 | 54.60538 | 15.20579 | 36264 ft | 424 kts | 226° |
| 2026-04-26 18:59 | 54.55873 | 15.14181 | 36252 ft | 428 kts | 222° |
| 2026-04-26 19:00 | 54.50970 | 15.08354 | 36274 ft | 429 kts | 220° |
| 2026-04-26 19:00 | 54.46042 | 15.02702 | 36280 ft | 428 kts | 220° |
| 2026-04-26 19:01 | 54.41096 | 14.97001 | 36285 ft | 428 kts | 220° |
| 2026-04-26 19:01 | 54.36162 | 14.91276 | 36287 ft | 428 kts | 220° |
| 2026-04-26 19:02 | 54.31229 | 14.85574 | 36273 ft | 428 kts | 220° |
| 2026-04-26 19:02 | 54.27093 | 14.80813 | 36280 ft | 427 kts | 220° |
| 2026-04-26 19:03 | 54.21355 | 14.74214 | 36294 ft | 427 kts | 220° |
| 2026-04-26 19:03 | 54.16423 | 14.68555 | 36295 ft | 427 kts | 220° |
| 2026-04-26 19:04 | 54.11489 | 14.62914 | 36271 ft | 427 kts | 220° |
| 2026-04-26 19:04 | 54.06556 | 14.57290 | 36287 ft | 426 kts | 220° |
| 2026-04-26 19:05 | 53.99163 | 14.48901 | 36294 ft | 425 kts | 220° |
| 2026-04-26 19:06 | 53.94239 | 14.43332 | 36293 ft | 425 kts | 220° |
| 2026-04-26 19:06 | 53.89307 | 14.37786 | 36292 ft | 425 kts | 220° |
| 2026-04-26 19:07 | 53.84379 | 14.32254 | 36283 ft | 424 kts | 220° |
| 2026-04-26 19:07 | 53.79468 | 14.26730 | 36286 ft | 424 kts | 220° |
| 2026-04-26 19:08 | 53.74595 | 14.21258 | 36296 ft | 423 kts | 220° |
| 2026-04-26 19:08 | 53.69682 | 14.15761 | 36286 ft | 423 kts | 219° |
| 2026-04-26 19:09 | 53.64773 | 14.10276 | 36268 ft | 423 kts | 219° |
| 2026-04-26 19:09 | 53.59862 | 14.04828 | 36293 ft | 423 kts | 219° |
| 2026-04-26 19:10 | 53.54953 | 13.99389 | 36299 ft | 422 kts | 219° |
| 2026-04-26 19:10 | 53.50040 | 13.93962 | 36305 ft | 422 kts | 219° |
| 2026-04-26 19:11 | 53.45132 | 13.88549 | 36306 ft | 422 kts | 219° |
| 2026-04-26 19:11 | 53.40223 | 13.83152 | 36297 ft | 422 kts | 219° |
| 2026-04-26 19:12 | 53.35314 | 13.77769 | 36302 ft | 422 kts | 219° |
| 2026-04-26 19:12 | 53.30405 | 13.72402 | 36307 ft | 421 kts | 219° |
| 2026-04-26 19:13 | 53.25485 | 13.67046 | 36307 ft | 421 kts | 219° |
| 2026-04-26 19:13 | 53.20574 | 13.61707 | 36283 ft | 421 kts | 219° |
| 2026-04-26 19:14 | 53.15661 | 13.56384 | 36289 ft | 421 kts | 219° |
| 2026-04-26 19:14 | 53.10781 | 13.51121 | 36291 ft | 421 kts | 219° |
| 2026-04-26 19:15 | 53.05837 | 13.45784 | 36297 ft | 421 kts | 219° |
| 2026-04-26 19:15 | 53.00928 | 13.40510 | 36303 ft | 421 kts | 219° |
| 2026-04-26 19:16 | 52.96043 | 13.35278 | 36286 ft | 420 kts | 218° |
| 2026-04-26 19:16 | 52.91126 | 13.30021 | 36301 ft | 420 kts | 218° |
| 2026-04-26 19:17 | 52.86207 | 13.24775 | 36302 ft | 420 kts | 218° |
| 2026-04-26 19:17 | 52.81281 | 13.19534 | 36285 ft | 420 kts | 218° |
| 2026-04-26 19:18 | 52.76363 | 13.14312 | 36291 ft | 420 kts | 218° |
| 2026-04-26 19:18 | 52.71436 | 13.09102 | 36295 ft | 420 kts | 218° |
| 2026-04-26 19:19 | 52.66504 | 13.03910 | 36296 ft | 420 kts | 218° |
| 2026-04-26 19:19 | 52.61576 | 12.98734 | 36299 ft | 420 kts | 218° |
| 2026-04-26 19:20 | 52.56642 | 12.93554 | 36297 ft | 420 kts | 218° |
| 2026-04-26 19:20 | 52.51710 | 12.88388 | 36282 ft | 420 kts | 218° |
| 2026-04-26 19:21 | 52.46775 | 12.83239 | 36289 ft | 420 kts | 218° |
| 2026-04-26 19:21 | 52.41836 | 12.78098 | 36293 ft | 420 kts | 218° |
| 2026-04-26 19:22 | 52.36889 | 12.72973 | 36294 ft | 421 kts | 218° |
| 2026-04-26 19:22 | 52.31923 | 12.67896 | 36282 ft | 421 kts | 217° |
| 2026-04-26 19:23 | 52.26960 | 12.62921 | 36291 ft | 421 kts | 217° |
| 2026-04-26 19:23 | 52.21964 | 12.57938 | 36296 ft | 421 kts | 217° |
| 2026-04-26 19:24 | 52.16973 | 12.52941 | 36297 ft | 421 kts | 217° |
| 2026-04-26 19:24 | 52.09496 | 12.45467 | 36274 ft | 421 kts | 217° |
| 2026-04-26 19:25 | 52.06161 | 12.42139 | 36288 ft | 420 kts | 217° |
| 2026-04-26 19:25 | 51.99518 | 12.35532 | 36301 ft | 420 kts | 217° |
| 2026-04-26 19:26 | 51.94531 | 12.30600 | 36302 ft | 420 kts | 216° |
| 2026-04-26 19:26 | 51.89539 | 12.25679 | 36294 ft | 420 kts | 216° |
| 2026-04-26 19:27 | 51.84548 | 12.20755 | 36278 ft | 420 kts | 216° |
| 2026-04-26 19:27 | 51.79416 | 12.16144 | 36285 ft | 423 kts | 212° |
| 2026-04-26 19:28 | 51.74144 | 12.11927 | 36289 ft | 423 kts | 211° |
| 2026-04-26 19:28 | 51.68860 | 12.07740 | 36291 ft | 423 kts | 211° |
| 2026-04-26 19:29 | 51.63591 | 12.03475 | 36274 ft | 423 kts | 212° |
| 2026-04-26 19:29 | 51.58345 | 11.99175 | 36283 ft | 424 kts | 212° |
| 2026-04-26 19:30 | 51.53084 | 11.94884 | 36287 ft | 424 kts | 212° |
| 2026-04-26 19:30 | 51.48705 | 11.91338 | 36289 ft | 424 kts | 211° |
| 2026-04-26 19:31 | 51.44926 | 11.89525 | 36279 ft | 437 kts | 188° |
| 2026-04-26 19:31 | 51.41868 | 11.89318 | 36265 ft | 441 kts | 185° |
| 2026-04-26 19:31 | 51.35701 | 11.89168 | 36332 ft | 446 kts | 185° |
| 2026-04-26 19:32 | 51.32593 | 11.89097 | 36538 ft | 448 kts | 185° |
| 2026-04-26 19:32 | 51.29475 | 11.89025 | 36776 ft | 448 kts | 185° |
| 2026-04-26 19:32 | 51.26363 | 11.88952 | 37024 ft | 448 kts | 185° |
| 2026-04-26 19:32 | 51.23245 | 11.88833 | 37271 ft | 446 kts | 189° |
| 2026-04-26 19:33 | 51.20243 | 11.87848 | 37510 ft | 436 kts | 205° |
| 2026-04-26 19:33 | 51.17552 | 11.85759 | 37741 ft | 429 kts | 214° |
| 2026-04-26 19:33 | 51.14979 | 11.83356 | 37975 ft | 429 kts | 215° |
| 2026-04-26 19:33 | 51.12417 | 11.80941 | 38189 ft | 429 kts | 215° |
| 2026-04-26 19:34 | 51.09846 | 11.78511 | 38297 ft | 429 kts | 215° |
| 2026-04-26 19:34 | 51.07273 | 11.76088 | 38305 ft | 429 kts | 215° |
| 2026-04-26 19:34 | 51.02125 | 11.71279 | 38303 ft | 429 kts | 215° |
| 2026-04-26 19:35 | 50.96974 | 11.66485 | 38304 ft | 429 kts | 214° |
| 2026-04-26 19:35 | 50.91813 | 11.61695 | 38304 ft | 430 kts | 214° |
| 2026-04-26 19:36 | 50.88392 | 11.58531 | 38300 ft | 430 kts | 214° |
| 2026-04-26 19:36 | 50.82352 | 11.52956 | 38301 ft | 430 kts | 214° |
| 2026-04-26 19:37 | 50.77187 | 11.48193 | 38298 ft | 430 kts | 214° |
| 2026-04-26 19:37 | 50.72017 | 11.43447 | 38289 ft | 430 kts | 214° |
| 2026-04-26 19:38 | 50.66842 | 11.38707 | 38297 ft | 430 kts | 214° |
| 2026-04-26 19:38 | 50.61670 | 11.33972 | 38302 ft | 430 kts | 214° |
| 2026-04-26 19:39 | 50.56488 | 11.29234 | 38300 ft | 430 kts | 214° |
| 2026-04-26 19:39 | 50.51304 | 11.24523 | 38307 ft | 430 kts | 214° |
| 2026-04-26 19:40 | 50.46116 | 11.19821 | 38305 ft | 430 kts | 214° |
| 2026-04-26 19:40 | 50.40925 | 11.15128 | 38296 ft | 431 kts | 214° |
| 2026-04-26 19:41 | 50.35735 | 11.10449 | 38294 ft | 431 kts | 214° |
| 2026-04-26 19:41 | 50.31408 | 11.06551 | 38281 ft | 431 kts | 214° |
| 2026-04-26 19:42 | 50.25330 | 11.01085 | 38291 ft | 431 kts | 214° |
| 2026-04-26 19:42 | 50.20123 | 10.96420 | 38297 ft | 431 kts | 214° |
| 2026-04-26 19:43 | 50.14914 | 10.91767 | 38291 ft | 431 kts | 214° |
| 2026-04-26 19:43 | 50.09702 | 10.87118 | 38286 ft | 431 kts | 214° |
| 2026-04-26 19:44 | 50.04527 | 10.82524 | 38283 ft | 431 kts | 213° |
| 2026-04-26 19:44 | 49.99313 | 10.77909 | 38284 ft | 431 kts | 213° |
| 2026-04-26 19:45 | 49.94102 | 10.73292 | 38286 ft | 431 kts | 213° |
| 2026-04-26 19:45 | 49.89250 | 10.67979 | 38268 ft | 425 kts | 224° |
| 2026-04-26 19:46 | 49.84756 | 10.62026 | 38266 ft | 425 kts | 224° |
| 2026-04-26 19:46 | 49.80261 | 10.56074 | 38269 ft | 425 kts | 224° |
| 2026-04-26 19:47 | 49.76514 | 10.51138 | 38271 ft | 426 kts | 224° |
| 2026-04-26 19:47 | 49.71208 | 10.44259 | 38252 ft | 426 kts | 223° |
| 2026-04-26 19:48 | 49.66644 | 10.38420 | 38249 ft | 426 kts | 223° |
| 2026-04-26 19:48 | 49.62072 | 10.32601 | 38249 ft | 426 kts | 223° |
| 2026-04-26 19:49 | 49.57497 | 10.26765 | 38254 ft | 427 kts | 223° |
| 2026-04-26 19:49 | 49.52949 | 10.20968 | 38255 ft | 427 kts | 223° |
| 2026-04-26 19:50 | 49.48341 | 10.15110 | 38241 ft | 427 kts | 223° |
| 2026-04-26 19:50 | 49.43790 | 10.09334 | 38245 ft | 427 kts | 223° |
| 2026-04-26 19:51 | 49.39206 | 10.03536 | 38247 ft | 427 kts | 223° |
| 2026-04-26 19:51 | 49.34618 | 9.97748 | 38251 ft | 427 kts | 223° |
| 2026-04-26 19:52 | 49.30024 | 9.91974 | 38243 ft | 427 kts | 223° |
| 2026-04-26 19:52 | 49.25426 | 9.86201 | 38251 ft | 427 kts | 223° |
| 2026-04-26 19:53 | 49.20827 | 9.80448 | 38255 ft | 427 kts | 223° |
| 2026-04-26 19:53 | 49.16218 | 9.74695 | 38241 ft | 428 kts | 223° |
| 2026-04-26 19:54 | 49.11602 | 9.68944 | 38231 ft | 428 kts | 223° |
| 2026-04-26 19:54 | 49.06981 | 9.63199 | 38239 ft | 429 kts | 223° |
| 2026-04-26 19:55 | 49.02347 | 9.57450 | 38247 ft | 429 kts | 223° |
| 2026-04-26 19:55 | 48.97711 | 9.51713 | 38249 ft | 430 kts | 223° |
| 2026-04-26 19:56 | 48.93073 | 9.45993 | 38250 ft | 430 kts | 223° |
| 2026-04-26 19:56 | 48.88416 | 9.40272 | 38245 ft | 430 kts | 223° |
| 2026-04-26 19:57 | 48.83764 | 9.34558 | 38102 ft | 430 kts | 223° |
| 2026-04-26 19:57 | 48.81440 | 9.31709 | 37821 ft | 429 kts | 222° |
| 2026-04-26 19:57 | 48.79118 | 9.28873 | 37546 ft | 429 kts | 222° |
| 2026-04-26 19:58 | 48.76785 | 9.26030 | 37274 ft | 430 kts | 222° |
| 2026-04-26 19:58 | 48.74455 | 9.23188 | 37007 ft | 430 kts | 222° |
| 2026-04-26 19:58 | 48.72126 | 9.20345 | 36745 ft | 430 kts | 223° |
| 2026-04-26 19:58 | 48.69795 | 9.17502 | 36474 ft | 431 kts | 222° |
| 2026-04-26 19:59 | 48.67454 | 9.14653 | 36201 ft | 433 kts | 223° |
| 2026-04-26 19:59 | 48.65099 | 9.11794 | 35945 ft | 435 kts | 223° |
| 2026-04-26 19:59 | 48.62736 | 9.08934 | 35695 ft | 436 kts | 223° |
| 2026-04-26 19:59 | 48.60367 | 9.06070 | 35448 ft | 437 kts | 223° |
| 2026-04-26 20:00 | 48.57995 | 9.03198 | 35232 ft | 437 kts | 223° |
| 2026-04-26 20:00 | 48.55625 | 9.00329 | 35227 ft | 437 kts | 223° |
| 2026-04-26 20:00 | 48.50864 | 8.94585 | 35242 ft | 438 kts | 223° |
| 2026-04-26 20:01 | 48.46097 | 8.88858 | 35238 ft | 438 kts | 222° |
| 2026-04-26 20:01 | 48.41329 | 8.83135 | 35243 ft | 438 kts | 223° |
| 2026-04-26 20:02 | 48.36584 | 8.77448 | 35246 ft | 439 kts | 222° |
| 2026-04-26 20:02 | 48.32584 | 8.72673 | 35247 ft | 439 kts | 222° |
| 2026-04-26 20:03 | 48.26993 | 8.66013 | 35243 ft | 439 kts | 222° |
| 2026-04-26 20:03 | 48.22208 | 8.60333 | 35243 ft | 439 kts | 222° |
| 2026-04-26 20:04 | 48.17457 | 8.54697 | 35234 ft | 439 kts | 222° |
| 2026-04-26 20:04 | 48.12652 | 8.49006 | 35247 ft | 440 kts | 222° |
| 2026-04-26 20:05 | 48.07813 | 8.43283 | 35246 ft | 441 kts | 222° |
| 2026-04-26 20:05 | 48.03044 | 8.37611 | 35219 ft | 441 kts | 222° |
| 2026-04-26 20:06 | 48.00656 | 8.34780 | 34956 ft | 436 kts | 222° |
| 2026-04-26 20:06 | 47.98259 | 8.31939 | 34720 ft | 433 kts | 223° |
| 2026-04-26 20:06 | 47.95904 | 8.29154 | 34467 ft | 431 kts | 223° |
| 2026-04-26 20:06 | 47.93558 | 8.26381 | 34222 ft | 430 kts | 223° |
| 2026-04-26 20:07 | 47.91222 | 8.23618 | 33934 ft | 428 kts | 222° |
| 2026-04-26 20:07 | 47.88890 | 8.20863 | 33655 ft | 426 kts | 222° |
| 2026-04-26 20:07 | 47.86600 | 8.18163 | 33387 ft | 424 kts | 222° |
| 2026-04-26 20:07 | 47.84285 | 8.15446 | 33105 ft | 422 kts | 222° |
| 2026-04-26 20:08 | 47.81983 | 8.12744 | 32854 ft | 421 kts | 222° |
| 2026-04-26 20:08 | 47.79685 | 8.10048 | 32578 ft | 419 kts | 222° |
| 2026-04-26 20:08 | 47.77401 | 8.07368 | 32315 ft | 417 kts | 222° |
| 2026-04-26 20:08 | 47.75129 | 8.04702 | 32049 ft | 416 kts | 222° |
| 2026-04-26 20:09 | 47.72860 | 8.02044 | 31782 ft | 414 kts | 222° |
| 2026-04-26 20:09 | 47.70599 | 7.99403 | 31525 ft | 412 kts | 222° |
| 2026-04-26 20:09 | 47.68350 | 7.96778 | 31265 ft | 410 kts | 222° |
| 2026-04-26 20:09 | 47.66106 | 7.94164 | 31012 ft | 408 kts | 222° |
| 2026-04-26 20:10 | 47.63878 | 7.91574 | 30765 ft | 407 kts | 222° |
| 2026-04-26 20:10 | 47.61655 | 7.88989 | 30509 ft | 405 kts | 222° |
| 2026-04-26 20:10 | 47.59438 | 7.86412 | 30259 ft | 404 kts | 222° |
| 2026-04-26 20:10 | 47.57234 | 7.83852 | 29976 ft | 402 kts | 222° |
| 2026-04-26 20:11 | 47.55032 | 7.81297 | 29684 ft | 400 kts | 222° |
| 2026-04-26 20:11 | 47.52845 | 7.78765 | 29394 ft | 398 kts | 221° |
| 2026-04-26 20:11 | 47.50675 | 7.76254 | 29128 ft | 395 kts | 221° |
| 2026-04-26 20:12 | 47.46368 | 7.71268 | 28566 ft | 391 kts | 221° |
| 2026-04-26 20:12 | 47.44232 | 7.68804 | 28293 ft | 389 kts | 221° |
| 2026-04-26 20:12 | 47.42101 | 7.66353 | 28024 ft | 387 kts | 221° |
| 2026-04-26 20:12 | 47.39979 | 7.63915 | 27758 ft | 386 kts | 221° |
| 2026-04-26 20:13 | 47.37897 | 7.61521 | 27489 ft | 384 kts | 221° |
| 2026-04-26 20:13 | 47.35771 | 7.59076 | 27233 ft | 382 kts | 221° |
| 2026-04-26 20:13 | 47.33712 | 7.56709 | 26977 ft | 380 kts | 221° |
| 2026-04-26 20:13 | 47.31635 | 7.54319 | 26717 ft | 377 kts | 221° |
| 2026-04-26 20:14 | 47.29571 | 7.51951 | 26465 ft | 375 kts | 221° |
| 2026-04-26 20:14 | 47.27513 | 7.49597 | 26211 ft | 374 kts | 221° |
| 2026-04-26 20:14 | 47.25459 | 7.47254 | 25964 ft | 372 kts | 221° |
| 2026-04-26 20:14 | 47.23417 | 7.44930 | 25715 ft | 371 kts | 221° |
| 2026-04-26 20:15 | 47.21385 | 7.42616 | 25464 ft | 368 kts | 221° |
| 2026-04-26 20:15 | 47.19369 | 7.40317 | 25223 ft | 366 kts | 221° |
| 2026-04-26 20:15 | 47.17358 | 7.38026 | 24984 ft | 364 kts | 221° |
| 2026-04-26 20:15 | 47.15364 | 7.35734 | 24745 ft | 362 kts | 222° |
| 2026-04-26 20:16 | 47.13421 | 7.33401 | 24501 ft | 360 kts | 223° |
| 2026-04-26 20:16 | 47.11508 | 7.31036 | 24262 ft | 358 kts | 223° |
| 2026-04-26 20:16 | 47.09618 | 7.28670 | 24035 ft | 357 kts | 223° |
| 2026-04-26 20:16 | 47.07735 | 7.26317 | 23814 ft | 355 kts | 223° |
| 2026-04-26 20:17 | 47.05850 | 7.23985 | 23545 ft | 353 kts | 223° |
| 2026-04-26 20:17 | 47.03971 | 7.21675 | 23267 ft | 352 kts | 223° |
| 2026-04-26 20:17 | 47.02095 | 7.19380 | 22997 ft | 351 kts | 223° |
| 2026-04-26 20:17 | 47.00852 | 7.17863 | 22819 ft | 350 kts | 223° |
| 2026-04-26 20:18 | 46.98353 | 7.14817 | 22462 ft | 349 kts | 223° |
| 2026-04-26 20:18 | 46.96486 | 7.12549 | 22185 ft | 348 kts | 223° |
| 2026-04-26 20:18 | 46.94629 | 7.10293 | 21930 ft | 347 kts | 222° |
| 2026-04-26 20:18 | 46.92773 | 7.08039 | 21667 ft | 346 kts | 222° |
| 2026-04-26 20:19 | 46.90928 | 7.05797 | 21415 ft | 345 kts | 222° |
| 2026-04-26 20:19 | 46.89086 | 7.03560 | 21161 ft | 344 kts | 222° |
| 2026-04-26 20:19 | 46.87248 | 7.01328 | 20909 ft | 342 kts | 222° |
| 2026-04-26 20:19 | 46.86034 | 6.99858 | 20741 ft | 342 kts | 222° |
| 2026-04-26 20:20 | 46.83610 | 6.96925 | 20413 ft | 340 kts | 222° |
| 2026-04-26 20:20 | 46.81789 | 6.94724 | 20168 ft | 339 kts | 222° |
| 2026-04-26 20:20 | 46.79975 | 6.92527 | 19922 ft | 339 kts | 222° |
| 2026-04-26 20:20 | 46.78166 | 6.90337 | 19681 ft | 338 kts | 222° |
| 2026-04-26 20:21 | 46.76359 | 6.88156 | 19444 ft | 337 kts | 222° |
| 2026-04-26 20:21 | 46.75141 | 6.86687 | 19273 ft | 336 kts | 222° |
| 2026-04-26 20:21 | 46.73336 | 6.84514 | 19024 ft | 334 kts | 222° |
| 2026-04-26 20:21 | 46.71573 | 6.82392 | 18663 ft | 332 kts | 222° |
| 2026-04-26 20:22 | 46.69772 | 6.80231 | 18269 ft | 330 kts | 221° |
| 2026-04-26 20:22 | 46.68026 | 6.78139 | 17859 ft | 328 kts | 221° |
| 2026-04-26 20:22 | 46.66264 | 6.76038 | 17468 ft | 326 kts | 219° |
| 2026-04-26 20:22 | 46.64347 | 6.74272 | 17095 ft | 326 kts | 210° |
| 2026-04-26 20:23 | 46.62359 | 6.72701 | 16719 ft | 324 kts | 210° |
| 2026-04-26 20:23 | 46.60384 | 6.71139 | 16366 ft | 322 kts | 210° |
| 2026-04-26 20:23 | 46.58427 | 6.69592 | 16026 ft | 319 kts | 211° |
| 2026-04-26 20:23 | 46.56478 | 6.68054 | 15686 ft | 317 kts | 210° |
| 2026-04-26 20:24 | 46.54543 | 6.66533 | 15348 ft | 315 kts | 210° |
| 2026-04-26 20:24 | 46.52616 | 6.65019 | 15024 ft | 313 kts | 210° |
| 2026-04-26 20:24 | 46.50706 | 6.63519 | 14694 ft | 311 kts | 210° |
| 2026-04-26 20:24 | 46.48809 | 6.62027 | 14369 ft | 309 kts | 210° |
| 2026-04-26 20:25 | 46.46923 | 6.60544 | 14047 ft | 307 kts | 210° |
| 2026-04-26 20:25 | 46.45680 | 6.59568 | 13812 ft | 306 kts | 210° |
| 2026-04-26 20:25 | 46.43185 | 6.57615 | 13336 ft | 303 kts | 210° |
| 2026-04-26 20:25 | 46.41336 | 6.56171 | 12981 ft | 301 kts | 210° |
| 2026-04-26 20:26 | 46.39578 | 6.54559 | 12627 ft | 297 kts | 221° |
| 2026-04-26 20:26 | 46.38089 | 6.52500 | 12265 ft | 295 kts | 227° |
| 2026-04-26 20:26 | 46.36666 | 6.50376 | 11905 ft | 293 kts | 227° |
| 2026-04-26 20:26 | 46.35247 | 6.48264 | 11552 ft | 292 kts | 227° |
| 2026-04-26 20:27 | 46.33832 | 6.46164 | 11202 ft | 290 kts | 226° |
| 2026-04-26 20:27 | 46.32427 | 6.44089 | 10852 ft | 288 kts | 226° |
| 2026-04-26 20:27 | 46.31024 | 6.42023 | 10501 ft | 287 kts | 226° |
| 2026-04-26 20:27 | 46.29631 | 6.39971 | 10132 ft | 286 kts | 227° |
| 2026-04-26 20:28 | 46.28238 | 6.37920 | 9720 ft | 285 kts | 227° |
| 2026-04-26 20:28 | 46.26853 | 6.35881 | 9323 ft | 283 kts | 226° |
| 2026-04-26 20:28 | 46.25496 | 6.33884 | 9039 ft | 278 kts | 226° |
| 2026-04-26 20:28 | 46.24151 | 6.31909 | 8905 ft | 267 kts | 226° |
| 2026-04-26 20:29 | 46.22890 | 6.30058 | 8776 ft | 256 kts | 226° |
| 2026-04-26 20:29 | 46.21654 | 6.28240 | 8646 ft | 245 kts | 226° |
| 2026-04-26 20:29 | 46.20478 | 6.26510 | 8422 ft | 239 kts | 226° |
| 2026-04-26 20:29 | 46.19320 | 6.24810 | 8115 ft | 237 kts | 226° |
| 2026-04-26 20:30 | 46.18188 | 6.23133 | 7780 ft | 236 kts | 226° |
| 2026-04-26 20:30 | 46.17032 | 6.21412 | 7445 ft | 235 kts | 226° |
| 2026-04-26 20:30 | 46.15909 | 6.19739 | 7293 ft | 228 kts | 226° |
| 2026-04-26 20:30 | 46.14870 | 6.18069 | 7167 ft | 219 kts | 234° |
| 2026-04-26 20:31 | 46.14044 | 6.16304 | 7047 ft | 211 kts | 237° |
| 2026-04-26 20:31 | 46.13271 | 6.14546 | 6875 ft | 204 kts | 238° |
| 2026-04-26 20:31 | 46.12518 | 6.12812 | 6473 ft | 207 kts | 238° |
| 2026-04-26 20:31 | 46.11745 | 6.11035 | 6022 ft | 211 kts | 238° |
| 2026-04-26 20:32 | 46.10958 | 6.09242 | 5619 ft | 211 kts | 238° |
| 2026-04-26 20:32 | 46.10178 | 6.07470 | 5191 ft | 208 kts | 238° |
| 2026-04-26 20:32 | 46.09509 | 6.05636 | 4660 ft | 207 kts | 258° |
| 2026-04-26 20:32 | 46.09626 | 6.03642 | 4360 ft | 197 kts | 297° |
| 2026-04-26 20:33 | 46.10390 | 6.02058 | 4090 ft | 191 kts | 316° |
| 2026-04-26 20:33 | 46.11363 | 6.00776 | 3798 ft | 188 kts | 322° |
| 2026-04-26 20:33 | 46.12344 | 5.99579 | 3594 ft | 181 kts | 323° |
| 2026-04-26 20:33 | 46.13305 | 5.98485 | 3419 ft | 171 kts | 340° |
| 2026-04-26 20:34 | 46.14378 | 5.98432 | 3416 ft | 152 kts | 21° |
| 2026-04-26 20:34 | 46.15364 | 5.98954 | 3267 ft | 150 kts | 22° |
| 2026-04-26 20:34 | 46.16223 | 5.99725 | 3165 ft | 141 kts | 43° |
| 2026-04-26 20:34 | 46.16874 | 6.00745 | 2933 ft | 136 kts | 47° |
| 2026-04-26 20:35 | 46.17520 | 6.01699 | 2769 ft | 132 kts | 44° |
| 2026-04-26 20:35 | 46.18169 | 6.02623 | 2620 ft | 131 kts | 44° |
| 2026-04-26 20:35 | 46.18822 | 6.03563 | 2421 ft | 134 kts | 44° |
| 2026-04-26 20:35 | 46.19472 | 6.04535 | 2300 ft | 136 kts | 46° |
| 2026-04-26 20:36 | 46.20134 | 6.05516 | 2165 ft | 137 kts | 44° |
| 2026-04-26 20:36 | 46.20805 | 6.06501 | 2002 ft | 138 kts | 44° |
| 2026-04-26 20:36 | 46.21482 | 6.07491 | 1828 ft | 139 kts | 45° |
| 2026-04-26 20:36 | 46.22168 | 6.08483 | 1641 ft | 138 kts | 44° |
| 2026-04-26 20:37 | 46.22831 | 6.09469 | 1458 ft | 134 kts | 44° |
| 2026-04-26 20:37 | 46.23418 | 6.10325 | 1397 ft | 93 kts | 45° |
| 2026-04-26 20:37 | 46.23665 | 6.10687 | 1381 ft | 13 kts | 46° |
| 2026-04-26 20:37 | 46.23633 | 6.10740 | 1381 ft | 10 kts | 185° |
| 2026-04-26 20:38 | 46.23573 | 6.10719 | 1383 ft | 8 kts | 195° |
| 2026-04-26 20:38 | 46.23532 | 6.10702 | 1386 ft | 6 kts | 195° |
| 2026-04-26 20:38 | 46.23480 | 6.10682 | 1389 ft | 9 kts | 195° |
| 2026-04-26 20:38 | 46.23428 | 6.10659 | 1400 ft | 8 kts | 200° |
| 2026-04-26 20:39 | 46.23369 | 6.10596 | 1400 ft | 11 kts | 225° |
| 2026-04-26 20:39 | 46.23334 | 6.10546 | 1396 ft | 10 kts | 226° |
| 2026-04-26 20:39 | 46.23257 | 6.10432 | 1398 ft | 12 kts | 224° |
| 2026-04-26 20:39 | 46.23198 | 6.10349 | 1396 ft | 11 kts | 223° |
| 2026-04-26 20:40 | 46.23142 | 6.10381 | 1396 ft | 9 kts | 135° |
| 2026-04-26 20:40 | 46.23098 | 6.10444 | 1395 ft | 8 kts | 135° |
| 2026-04-26 20:40 | 46.23055 | 6.10485 | 1393 ft | 7 kts | 182° |
| 2026-04-26 20:40 | 46.23021 | 6.10448 | 1397 ft | 6 kts | 209° |
| 2026-04-26 20:41 | 46.22989 | 6.10479 | 1393 ft | 6 kts | 134° |
| 2026-04-26 20:41 | 46.22977 | 6.10496 | 1396 ft | 1 kts | 135° |